Time;durP1;ratioP1;P1;durP2;ratioP2;P2;SDS_P1;SDS_P2;PMS_P1;PMS_P2;Temp;Humidity;BMP_temperature;BMP_pressure;BME280_temperature;BME280_humidity;BME280_pressure;Samples;Min_cycle;Max_cycle;Signal;HPM_P1;HPM_P2
2022/07/03 00:03:25;;;;;;;4.35;2.33;;;;;;;19.00;74.76;101397.16;5137155;56;1138962;-79
2022/07/03 00:08:32;;;;;;;5.97;3.02;;;;;;;18.94;75.83;101397.78;5073078;57;1139215;-82
2022/07/03 00:13:39;;;;;;;4.12;3.47;;;;;;;18.73;75.90;101391.84;5130451;57;1137019;-80
2022/07/03 00:18:45;;;;;;;6.55;3.37;;;;;;;18.60;76.19;101397.56;5087147;57;1137097;-79
2022/07/03 00:23:59;;;;;;;3.92;3.00;;;;;;;18.46;76.75;101398.03;5099310;57;1137045;-81
2022/07/03 00:29:06;;;;;;;8.65;2.52;;;;;;;18.50;77.65;101394.88;5189889;57;1136955;-81
2022/07/03 00:34:16;;;;;;;15.93;3.10;;;;;;;18.67;78.26;101395.11;5154621;56;1137119;-81
2022/07/03 00:39:21;;;;;;;9.55;3.83;;;;;;;18.76;78.09;101399.09;5223647;56;1139077;-78
2022/07/03 00:44:29;;;;;;;5.12;3.15;;;;;;;18.78;77.91;101389.07;5240813;56;1137051;-80
2022/07/03 00:49:38;;;;;;;3.33;2.95;;;;;;;18.72;77.00;101392.84;5240634;56;1136997;-79
2022/07/03 00:54:57;;;;;;;4.05;3.65;;;;;;;18.64;77.56;101386.06;5218343;56;1136851;-78
2022/07/03 01:00:05;;;;;;;4.78;3.47;;;;;;;18.61;77.58;101389.38;5152961;57;1136892;-80
2022/07/03 01:05:44;;;;;;;4.83;3.20;;;;;;;18.54;77.54;101389.58;5071970;57;1136983;-80
2022/07/03 01:10:59;;;;;;;7.47;3.67;;;;;;;18.45;77.64;101388.31;5160962;56;1138983;-80
2022/07/03 01:16:39;;;;;;;6.87;3.80;;;;;;;18.39;77.51;101381.70;5212524;56;1139091;-80
2022/07/03 01:22:15;;;;;;;4.85;3.37;;;;;;;18.20;77.77;101379.95;5159708;57;1139035;-79
2022/07/03 01:27:33;;;;;;;3.85;3.27;;;;;;;18.16;78.52;101383.93;5149407;57;1139051;-81
2022/07/03 01:32:46;;;;;;;5.85;3.45;;;;;;;17.97;78.88;101376.45;5139499;57;1139083;-79
2022/07/03 01:37:53;;;;;;;4.70;3.52;;;;;;;17.92;79.29;101368.36;5140288;57;1139057;-78
2022/07/03 01:43:02;;;;;;;5.93;3.40;;;;;;;17.88;79.63;101366.95;5136027;57;1139020;-78
2022/07/03 01:48:10;;;;;;;8.37;3.50;;;;;;;17.87;79.88;101361.25;5140642;57;1139068;-81
2022/07/03 01:53:18;;;;;;;4.10;3.70;;;;;;;17.87;80.34;101355.09;5140669;57;1139210;-79
2022/07/03 01:58:24;;;;;;;6.97;3.80;;;;;;;17.77;80.36;101354.25;5146156;57;1139217;-81
2022/07/03 02:03:34;;;;;;;10.37;4.03;;;;;;;17.68;80.61;101353.30;5139831;57;1139119;-80
2022/07/03 02:08:59;;;;;;;6.87;3.65;;;;;;;17.57;81.13;101342.70;5096851;57;1141136;-79
2022/07/03 02:14:20;;;;;;;6.80;3.67;;;;;;;17.44;81.97;101336.34;5134938;57;1136922;-80
2022/07/03 02:19:49;;;;;;;7.90;3.83;;;;;;;17.34;82.56;101338.19;5151632;56;1137078;-79
2022/07/03 02:25:00;;;;;;;11.37;4.47;;;;;;;17.24;82.82;101338.70;5137419;56;1138771;-80
2022/07/03 02:30:08;;;;;;;5.83;3.37;;;;;;;17.18;83.03;101337.43;5109885;57;1139056;-80
2022/07/03 02:35:27;;;;;;;6.40;3.97;;;;;;;17.13;81.01;101340.16;5040116;58;1137011;-79
2022/07/03 02:41:01;;;;;;;5.60;4.10;;;;;;;17.13;81.65;101342.84;5074150;58;1137038;-80
2022/07/03 02:51:41;;;;;;;5.13;3.97;;;;;;;17.10;81.74;101348.49;5078639;57;1141326;-79
2022/07/03 02:57:07;;;;;;;8.47;4.17;;;;;;;17.13;82.11;101349.03;5096423;57;1139073;-79
2022/07/03 03:02:35;;;;;;;9.73;4.37;;;;;;;17.18;81.67;101344.11;5071656;57;1139102;-79
2022/07/03 03:08:06;;;;;;;6.07;3.90;;;;;;;17.17;81.71;101347.77;5087618;57;1139149;-79
2022/07/03 03:13:20;;;;;;;12.53;5.03;;;;;;;17.08;81.83;101343.28;5189802;56;1139106;-79
2022/07/03 03:18:28;;;;;;;6.53;4.53;;;;;;;17.04;82.29;101340.53;5240141;56;1141372;-80
2022/07/03 03:23:53;;;;;;;5.40;4.20;;;;;;;16.95;82.54;101345.89;5239990;56;1139055;-81
2022/07/03 03:29:01;;;;;;;6.30;4.37;;;;;;;16.98;82.99;101341.08;5110602;56;1139302;-80
2022/07/03 03:34:07;;;;;;;11.67;4.60;;;;;;;17.05;83.33;101334.20;5066699;58;1139025;-79
2022/07/03 03:39:14;;;;;;;8.43;3.77;;;;;;;17.17;83.91;101335.74;5066785;58;1141132;-78
2022/07/03 03:44:20;;;;;;;7.13;4.40;;;;;;;17.07;83.08;101333.58;5123917;57;1137018;-79
2022/07/03 03:49:25;;;;;;;6.60;4.70;;;;;;;17.00;83.96;101333.77;5079873;57;1137030;-79
2022/07/03 03:54:31;;;;;;;9.83;4.53;;;;;;;17.10;84.94;101331.97;5053733;58;1137241;-80
2022/07/03 03:59:38;;;;;;;7.87;4.33;;;;;;;17.22;85.14;101336.17;5053758;58;1136984;-80
2022/07/03 04:04:44;;;;;;;7.53;4.10;;;;;;;17.32;85.31;101337.98;5053691;58;1137157;-79
2022/07/03 04:09:50;;;;;;;6.97;4.73;;;;;;;17.35;85.59;101330.52;5058327;57;1137183;-80
2022/07/03 04:15:00;;;;;;;10.50;4.20;;;;;;;17.41;86.29;101327.78;5136905;57;1137019;-79
2022/07/03 04:20:08;;;;;;;4.37;3.97;;;;;;;17.50;86.95;101323.73;5093600;57;1139050;-80
2022/07/03 04:25:15;;;;;;;5.87;3.20;;;;;;;17.58;87.41;101323.84;5126096;57;1137166;-80
2022/07/03 04:30:21;;;;;;;4.73;3.83;;;;;;;17.70;87.45;101317.88;5012231;58;1137086;-80
2022/07/03 04:35:27;;;;;;;6.27;4.10;;;;;;;17.78;87.70;101314.47;5053584;58;1137015;-79
2022/07/03 04:40:32;;;;;;;7.37;3.53;;;;;;;17.86;87.72;101315.44;5053949;57;1137238;-79
2022/07/03 04:45:38;;;;;;;6.60;4.27;;;;;;;17.95;87.63;101317.72;5087438;56;1136941;-79
2022/07/03 04:50:43;;;;;;;5.25;4.10;;;;;;;18.03;87.75;101313.78;5118996;57;1136994;-80
2022/07/03 04:55:49;;;;;;;9.35;4.08;;;;;;;18.10;88.65;101312.72;5084882;57;1137557;-80
2022/07/03 05:00:55;;;;;;;6.78;3.77;;;;;;;18.16;88.93;101304.95;5066470;58;1136934;-79
2022/07/03 05:06:01;;;;;;;4.93;3.20;;;;;;;18.33;88.75;101310.50;5066512;57;1136976;-80
2022/07/03 05:11:08;;;;;;;7.00;3.00;;;;;;;18.47;88.79;101309.48;5178823;56;1134878;-79
2022/07/03 05:16:14;;;;;;;7.58;3.10;;;;;;;18.58;88.30;101317.34;5231753;56;21100;-78
2022/07/03 05:21:20;;;;;;;6.05;2.60;;;;;;;18.70;88.35;101310.41;5175595;56;1134764;-78
2022/07/03 05:26:26;;;;;;;8.93;5.85;;;;;;;18.83;88.05;101303.67;5161775;56;1139067;-79
2022/07/03 05:31:32;;;;;;;5.50;3.27;;;;;;;19.01;88.29;101306.34;5096112;57;1138974;-79
2022/07/03 05:36:37;;;;;;;3.43;2.17;;;;;;;19.25;88.10;101297.64;5155102;57;1139198;-79
2022/07/03 05:41:44;;;;;;;2.60;2.10;;;;;;;19.43;86.68;101302.47;5118681;56;1139026;-78
2022/07/03 05:46:50;;;;;;;7.65;3.00;;;;;;;19.59;86.03;101304.45;5172756;56;1139195;-79
2022/07/03 05:51:56;;;;;;;5.42;2.25;;;;;;;19.83;86.87;101293.88;5148774;57;1139232;-79
2022/07/03 05:57:01;;;;;;;3.52;1.50;;;;;;;20.10;85.65;101299.53;5149038;57;1138277;-79
2022/07/03 06:02:07;;;;;;;2.37;1.52;;;;;;;20.35;84.18;101301.28;5128872;57;1139130;-79
2022/07/03 06:07:13;;;;;;;6.03;1.35;;;;;;;20.54;83.53;101310.95;5124706;57;1138961;-78
2022/07/03 06:12:18;;;;;;;2.37;1.25;;;;;;;20.73;82.20;101312.50;5159370;56;1139125;-79
2022/07/03 06:17:24;;;;;;;2.60;1.50;;;;;;;20.87;80.94;101323.11;5234434;56;1139094;-79
2022/07/03 06:22:30;;;;;;;2.02;1.22;;;;;;;20.98;79.16;101309.33;5230836;56;1139004;-79
2022/07/03 06:27:36;;;;;;;3.66;1.64;;;;;;;21.10;77.63;101312.02;5159095;56;1139002;-79
2022/07/03 06:32:42;;;;;;;2.20;1.10;;;;;;;21.32;76.31;101308.69;5058161;58;1138987;-79
2022/07/03 06:37:48;;;;;;;2.40;1.15;;;;;;;21.46;73.47;101303.12;5059790;57;1139038;-79
2022/07/03 06:42:54;;;;;;;2.12;1.25;;;;;;;21.54;74.42;101299.59;5066669;58;1138957;-79
2022/07/03 06:48:00;;;;;;;4.20;1.60;;;;;;;21.72;72.27;101297.50;5168704;56;1139183;-79
2022/07/03 06:53:05;;;;;;;3.00;1.07;;;;;;;21.86;73.49;101296.78;5236662;56;1139307;-79
2022/07/03 06:58:11;;;;;;;3.80;1.67;;;;;;;21.98;72.24;101293.23;5155017;56;1138937;-79
2022/07/03 07:03:17;;;;;;;6.25;2.15;;;;;;;22.10;69.99;101282.42;5150128;57;1139028;-79
2022/07/03 07:08:23;;;;;;;6.05;3.08;;;;;;;22.25;68.96;101282.52;5119777;57;1139053;-79
2022/07/03 07:13:28;;;;;;;11.05;5.37;;;;;;;22.36;67.68;101272.68;5137026;57;1139072;-79
2022/07/03 07:18:34;;;;;;;7.10;1.52;;;;;;;22.48;67.55;101280.69;5189638;56;1141083;-79
2022/07/03 07:23:40;;;;;;;7.70;5.40;;;;;;;22.57;66.51;101277.45;5206834;56;1139082;-79
2022/07/03 07:28:46;;;;;;;31.23;17.50;;;;;;;22.65;65.86;101275.52;5160332;57;1138920;-79
2022/07/03 07:33:51;;;;;;;7.17;1.80;;;;;;;22.65;65.40;101267.94;5160150;57;1143232;-79
2022/07/03 07:38:57;;;;;;;6.30;1.90;;;;;;;22.77;65.42;101278.16;5198595;56;1139015;-79
2022/07/03 07:44:03;;;;;;;1.50;1.27;;;;;;;22.96;65.01;101272.79;5100215;56;1139357;-79
2022/07/03 07:49:09;;;;;;;5.05;1.10;;;;;;;22.99;63.75;101261.64;5103258;56;1139021;-80
2022/07/03 07:54:15;;;;;;;11.68;1.45;;;;;;;22.82;62.88;101266.84;5089569;57;1139061;-80
2022/07/03 07:59:21;;;;;;;2.12;1.00;;;;;;;22.70;61.25;101266.39;5125226;57;1140978;-80
2022/07/03 08:09:53;;;;;;;3.15;1.25;;;;;;;23.08;63.13;101257.00;5151620;56;1139187;-79
2022/07/03 08:14:57;;;;;;;2.55;1.05;;;;;;;23.25;62.18;101257.17;5173817;56;1138923;-80
2022/07/03 08:20:05;;;;;;;6.47;1.87;;;;;;;23.37;60.69;101254.38;5239831;56;1139036;-81
2022/07/03 08:25:11;;;;;;;10.65;1.30;;;;;;;23.62;59.71;101246.03;5183767;56;1139093;-80
2022/07/03 08:30:18;;;;;;;5.12;1.05;;;;;;;23.47;60.00;101253.59;5239721;56;1139165;-81
2022/07/03 08:35:23;;;;;;;1.60;0.85;;;;;;;23.42;60.22;101240.30;5239801;56;1136904;-80
2022/07/03 08:40:29;;;;;;;2.10;1.32;;;;;;;23.42;58.44;101239.80;5159978;56;1136873;-81
2022/07/03 08:45:38;;;;;;;6.37;2.50;;;;;;;23.37;59.34;101244.09;5202250;56;1136874;-80
2022/07/03 08:50:44;;;;;;;5.50;1.00;;;;;;;23.30;58.56;101240.44;5239881;56;1137269;-80
2022/07/03 08:55:50;;;;;;;3.02;1.67;;;;;;;23.23;59.40;101233.58;5198622;56;1136938;-80
2022/07/03 09:00:56;;;;;;;9.06;3.90;;;;;;;23.36;59.73;101224.87;5172722;56;1137143;-82
2022/07/03 09:06:02;;;;;;;6.55;2.52;;;;;;;23.63;59.24;101220.70;5150983;56;1136932;-81
2022/07/03 09:11:09;;;;;;;1.45;1.05;;;;;;;23.76;57.99;101220.36;5180816;56;1136984;-80
2022/07/03 09:16:18;;;;;;;1.40;1.12;;;;;;;23.90;55.56;101214.61;5226945;56;1137013;-80
2022/07/03 09:21:24;;;;;;;4.08;1.40;;;;;;;24.16;54.32;101208.67;5224557;56;1136894;-81
2022/07/03 09:26:29;;;;;;;2.22;0.90;;;;;;;24.34;57.00;101206.41;5192000;56;1136911;-80
2022/07/03 09:31:35;;;;;;;2.37;1.05;;;;;;;24.50;53.56;101199.92;5139157;57;1137060;-80
2022/07/03 09:36:50;;;;;;;1.87;0.98;;;;;;;24.57;55.19;101193.23;5218056;56;1137533;-81
2022/07/03 09:42:06;;;;;;;1.98;1.17;;;;;;;24.81;52.19;101186.88;5225639;56;1137009;-81
2022/07/03 09:47:18;;;;;;;0.93;0.93;;;;;;;24.81;50.98;101181.47;5225348;56;1139051;-81
2022/07/03 09:52:37;;;;;;;1.33;0.93;;;;;;;24.63;51.95;101172.15;5219437;56;1139061;-81
2022/07/03 09:57:56;;;;;;;3.30;1.27;;;;;;;24.91;50.42;101177.06;5141966;56;1139051;-80
2022/07/03 10:03:09;;;;;;;7.05;3.47;;;;;;;24.74;51.72;101172.48;5129257;57;1138990;-80
2022/07/03 10:08:17;;;;;;;6.20;1.50;;;;;;;24.50;53.21;101172.87;5129028;57;1139051;-81
2022/07/03 10:13:24;;;;;;;8.18;5.50;;;;;;;24.64;53.87;101171.95;5188643;56;1139047;-81
2022/07/03 10:18:35;;;;;;;4.87;1.30;;;;;;;24.81;54.55;101169.30;5181580;56;1139005;-81
2022/07/03 10:23:42;;;;;;;1.80;1.02;;;;;;;24.77;53.12;101164.46;5174363;56;1139248;-80
2022/07/03 10:28:48;;;;;;;1.70;1.35;;;;;;;24.72;53.11;101156.12;5172539;56;1139024;-79
2022/07/03 10:33:57;;;;;;;5.97;1.75;;;;;;;24.68;52.63;101158.38;5189127;56;1138937;-81
2022/07/03 10:39:07;;;;;;;2.83;1.20;;;;;;;24.65;53.16;101157.92;5190662;56;1139545;-81
2022/07/03 10:49:43;;;;;;;3.12;1.35;;;;;;;24.78;52.59;101144.49;5176619;56;1138980;-79
2022/07/03 10:54:52;;;;;;;3.20;1.20;;;;;;;24.70;51.37;101135.19;5169929;56;1139029;-81
2022/07/03 11:00:01;;;;;;;5.62;1.30;;;;;;;24.82;52.73;101123.62;5213484;56;1139034;-80
2022/07/03 11:05:25;;;;;;;2.10;1.40;;;;;;;25.16;50.03;101120.12;5141944;57;1139269;-79
2022/07/03 11:10:32;;;;;;;5.80;1.12;;;;;;;25.50;52.76;101119.26;5158973;56;1138954;-80
2022/07/03 11:15:53;;;;;;;1.47;1.07;;;;;;;25.64;50.64;101112.05;5223954;56;1139163;-80
2022/07/03 11:21:16;;;;;;;0.90;0.90;;;;;;;25.64;50.73;101105.80;5200123;56;1136982;-80
2022/07/03 11:26:24;;;;;;;2.22;1.07;;;;;;;25.73;52.29;101103.20;5149198;56;1136963;-80
2022/07/03 11:31:29;;;;;;;1.45;1.12;;;;;;;25.93;50.02;101100.88;5132894;56;1137189;-80
2022/07/03 11:36:36;;;;;;;2.75;1.60;;;;;;;25.79;49.62;101095.63;5132557;56;1136899;-81
2022/07/03 11:41:44;;;;;;;3.40;1.75;;;;;;;25.64;50.59;101089.54;5129037;57;1137302;-81
2022/07/03 11:46:52;;;;;;;3.15;1.52;;;;;;;25.54;48.95;101083.94;5127739;57;1137176;-81
2022/07/03 11:52:02;;;;;;;8.00;1.02;;;;;;;25.49;49.57;101075.61;5072515;57;1137110;-81
2022/07/03 11:57:08;;;;;;;3.52;1.20;;;;;;;25.42;50.50;101075.25;5027755;58;1137016;-81
2022/07/03 12:02:14;;;;;;;2.17;0.90;;;;;;;25.39;51.81;101068.36;5063066;57;1137040;-81
2022/07/03 12:07:19;;;;;;;3.22;1.40;;;;;;;25.47;52.29;101061.42;5088855;57;1137105;-80
2022/07/03 12:12:26;;;;;;;3.37;1.22;;;;;;;25.80;51.33;101061.55;5210386;56;1137212;-81
2022/07/03 12:17:31;;;;;;;5.53;1.35;;;;;;;26.12;49.97;101050.44;5207245;56;1134297;-80
2022/07/03 12:22:38;;;;;;;1.95;0.88;;;;;;;26.36;50.43;101046.81;5212481;56;1134901;-83
2022/07/03 12:28:00;;;;;;;3.17;1.20;;;;;;;26.51;48.78;101045.55;5190012;56;1139336;-80
2022/07/03 12:33:08;;;;;;;7.50;1.52;;;;;;;26.57;48.96;101049.30;5104047;57;1139303;-82
2022/07/03 12:38:29;;;;;;;1.50;0.98;;;;;;;26.66;48.72;101034.45;5078360;58;1139261;-79
2022/07/03 12:43:43;;;;;;;1.30;1.20;;;;;;;26.59;48.86;101038.52;5142964;57;1139327;-79
2022/07/03 12:49:00;;;;;;;1.25;0.90;;;;;;;26.38;48.04;101038.78;5079978;57;1139355;-77
2022/07/03 12:54:17;;;;;;;4.40;1.10;;;;;;;26.18;48.74;101044.17;5109574;57;1138884;-78
2022/07/03 12:59:29;;;;;;;1.20;1.00;;;;;;;26.00;48.25;101037.69;5124800;57;1139045;-80
2022/07/03 13:04:38;;;;;;;;;;;;;;;25.99;49.17;101040.91;5136163;57;1138893;-79
2022/07/03 13:09:44;;;;;;;1.77;1.20;;;;;;;25.99;49.70;101034.66;5144638;57;976325;-79
2022/07/03 13:15:03;;;;;;;2.05;0.80;;;;;;;26.00;49.94;101040.39;5122153;57;1137430;-78
2022/07/03 13:20:09;;;;;;;2.15;1.02;;;;;;;26.05;49.68;101035.20;5085391;57;1139052;-79
2022/07/03 13:25:15;;;;;;;0.68;0.68;;;;;;;26.06;48.82;101028.22;5155522;56;1139124;-80
2022/07/03 13:30:21;;;;;;;4.75;1.10;;;;;;;26.15;47.47;101026.12;5117011;56;1139428;-78
2022/07/03 13:35:28;;;;;;;2.45;0.90;;;;;;;26.27;47.67;101019.88;5194747;56;1139007;-79
2022/07/03 13:40:35;;;;;;;1.47;1.37;;;;;;;26.19;46.74;101018.72;5203715;56;1139038;-80
2022/07/03 13:45:40;;;;;;;1.15;1.00;;;;;;;26.23;47.55;101019.98;5251282;56;1139085;-79
2022/07/03 13:50:46;;;;;;;1.67;1.20;;;;;;;26.24;47.49;101009.45;5182702;56;1139287;-79
2022/07/03 13:55:52;;;;;;;6.62;2.62;;;;;;;26.21;48.20;100999.53;5119736;57;1139052;-80
2022/07/03 14:00:58;;;;;;;1.67;1.12;;;;;;;26.18;48.94;100993.17;5126623;57;1139025;-78
2022/07/03 14:06:04;;;;;;;1.50;1.15;;;;;;;26.31;48.95;100980.14;5163092;57;1139072;-79
2022/07/03 14:11:10;;;;;;;3.45;1.15;;;;;;;26.53;49.30;100976.98;5072653;58;1139197;-79
2022/07/03 14:16:16;;;;;;;2.47;0.80;;;;;;;26.63;48.00;100979.25;5082814;56;1139201;-79
2022/07/03 14:21:22;;;;;;;1.50;0.90;;;;;;;26.68;47.41;100982.17;5185986;56;1139008;-79
2022/07/03 14:37:18;;;;;;;5.10;1.30;;;;;;;26.65;46.41;100962.23;5078688;57;1136935;-79
2022/07/03 14:42:23;;;;;;;6.22;1.15;;;;;;;26.59;46.96;100952.22;5058459;57;1136970;-78
2022/07/03 14:47:30;;;;;;;3.85;0.80;;;;;;;26.59;47.73;100942.73;5108513;57;1137209;-79
2022/07/03 14:52:36;;;;;;;1.30;1.27;;;;;;;26.59;48.14;100943.56;5045473;58;1136998;-78
2022/07/03 14:58:01;;;;;;;1.15;0.98;;;;;;;26.70;47.36;100940.73;5020966;58;1136948;-78
2022/07/03 15:03:31;;;;;;;3.42;1.17;;;;;;;26.77;46.61;100943.40;4956704;59;1135156;-78
2022/07/03 15:08:44;;;;;;;6.17;1.12;;;;;;;26.67;46.27;100948.45;4959260;57;1139270;-79
2022/07/03 15:13:49;;;;;;;4.50;1.40;;;;;;;26.67;47.42;100946.58;4950507;58;1139251;-79
2022/07/03 15:18:55;;;;;;;6.00;5.45;;;;;;;26.83;47.81;100937.12;4877711;59;1139083;-78
2022/07/03 15:24:03;;;;;;;4.83;0.90;;;;;;;26.94;46.63;100940.02;4888355;59;1139148;-79
2022/07/03 15:29:11;;;;;;;2.52;1.37;;;;;;;26.99;46.29;100932.59;4926312;59;1139081;-78
2022/07/03 15:34:16;;;;;;;3.60;1.37;;;;;;;27.03;45.72;100932.48;4956026;58;1139123;-80
2022/07/03 15:39:31;;;;;;;2.10;0.80;;;;;;;26.99;45.59;100923.09;4986349;57;1139075;-80
2022/07/03 15:45:16;;;;;;;0.98;0.90;;;;;;;26.79;45.20;100923.14;5151450;57;1139233;-80
2022/07/03 15:51:00;;;;;;;2.35;0.80;;;;;;;26.63;45.96;100918.20;5144709;57;1139028;-80
2022/07/03 15:56:10;;;;;;;1.07;1.07;;;;;;;26.57;46.90;100906.87;5005397;58;1139114;-78
2022/07/03 16:06:43;;;;;;;1.92;1.62;;;;;;;26.42;47.57;100908.48;4928468;59;1139308;-79
2022/07/03 16:11:50;;;;;;;3.75;1.35;;;;;;;26.39;47.53;100901.28;4959022;58;1137362;-80
2022/07/03 16:16:56;;;;;;;5.92;3.83;;;;;;;26.38;47.29;100900.45;5006928;58;1136971;-79
2022/07/03 16:22:02;;;;;;;5.55;3.70;;;;;;;26.41;47.14;100899.20;4991197;58;1137236;-79
2022/07/03 16:27:18;;;;;;;1.85;1.27;;;;;;;26.31;46.35;100900.14;4927427;59;1137234;-81
2022/07/03 16:32:37;;;;;;;2.35;2.15;;;;;;;26.24;47.43;100896.08;5031001;57;1137016;-80
2022/07/03 16:38:06;;;;;;;4.17;3.62;;;;;;;26.14;47.67;100890.23;5030434;58;1136976;-65
2022/07/03 16:43:14;;;;;;;2.08;1.85;;;;;;;26.12;48.07;100886.94;4966858;58;1136990;-80
2022/07/03 16:48:25;;;;;;;3.70;2.50;;;;;;;26.04;47.90;100883.91;4956646;59;1136993;-81
2022/07/03 16:53:31;;;;;;;8.50;3.27;;;;;;;25.99;48.16;100881.52;4918243;59;1134904;-78
2022/07/03 16:58:39;;;;;;;8.63;5.60;;;;;;;25.98;48.63;100881.20;4962456;58;1163167;-79
2022/07/03 17:03:46;;;;;;;3.17;2.25;;;;;;;25.95;48.87;100875.70;4962206;59;1139129;-78
2022/07/03 17:08:53;;;;;;;7.50;2.60;;;;;;;25.89;49.68;100874.66;4876511;58;1139232;-80
2022/07/03 17:13:59;;;;;;;2.72;1.70;;;;;;;25.94;50.17;100882.16;4974779;58;1139019;-80
2022/07/03 17:19:06;;;;;;;2.15;1.25;;;;;;;25.94;50.82;100880.81;5054230;58;1138999;-79
2022/07/03 17:24:12;;;;;;;3.55;1.37;;;;;;;25.90;50.87;100868.20;5005217;59;1139356;-80
2022/07/03 17:29:31;;;;;;;2.90;1.47;;;;;;;25.91;49.83;100871.22;5000901;58;1139174;-79
2022/07/03 17:34:37;;;;;;;1.40;1.30;;;;;;;25.85;49.63;100870.69;5013590;58;1139034;-79
2022/07/03 17:39:46;;;;;;;1.30;1.20;;;;;;;25.83;49.60;100867.87;4970190;59;1138957;-79
2022/07/03 17:44:53;;;;;;;1.62;0.85;;;;;;;25.85;50.04;100859.85;4901904;59;1139078;-80
2022/07/03 17:50:02;;;;;;;2.60;1.30;;;;;;;25.85;49.41;100865.27;4977082;58;1139189;-79
2022/07/03 17:55:10;;;;;;;2.42;1.70;;;;;;;25.82;49.10;100867.56;5014866;58;1138930;-80
2022/07/03 18:00:20;;;;;;;1.95;0.98;;;;;;;25.79;49.50;100856.65;4965110;58;1139096;-80
2022/07/03 18:05:26;;;;;;;3.40;1.07;;;;;;;25.79;49.76;100856.65;5078442;58;1138859;-80
2022/07/03 18:10:59;;;;;;;4.25;1.02;;;;;;;25.75;50.10;100851.84;5045773;58;1139035;-82
2022/07/03 18:16:15;;;;;;;1.77;1.37;;;;;;;25.71;50.28;100848.72;5000661;58;1138983;-82
2022/07/03 18:21:22;;;;;;;10.35;5.80;;;;;;;25.68;50.11;100839.65;5059590;58;1139069;-82
2022/07/03 18:26:35;;;;;;;12.37;7.67;;;;;;;25.62;50.36;100843.22;5215893;56;1141115;-80
2022/07/03 18:31:44;;;;;;;9.63;6.35;;;;;;;25.58;50.73;100850.89;5206389;56;1141264;-81
2022/07/03 18:36:50;;;;;;;6.58;3.85;;;;;;;25.57;51.10;100846.51;5240665;56;1139028;-80
2022/07/03 18:41:57;;;;;;;15.28;2.35;;;;;;;25.54;51.45;100848.27;5241780;56;1139028;-80
2022/07/03 18:47:04;;;;;;;3.92;1.95;;;;;;;25.46;51.77;100839.55;5241178;56;1141069;-79
2022/07/03 18:52:21;;;;;;;16.55;2.60;;;;;;;25.46;51.80;100853.08;5204187;56;1139220;-81
2022/07/03 18:57:55;;;;;;;21.20;3.83;;;;;;;25.38;52.43;100851.91;5163124;56;1139105;-76
2022/07/03 19:03:13;;;;;;;24.92;4.45;;;;;;;25.32;53.42;100853.60;5124518;56;1138992;-78
2022/07/03 19:08:40;;;;;;;22.95;4.75;;;;;;;25.23;54.04;100850.24;5217064;56;1139002;-78
2022/07/03 19:14:06;;;;;;;21.97;9.23;;;;;;;25.12;54.82;100862.20;5144366;56;1139182;-79
2022/07/03 19:19:14;;;;;;;27.07;9.25;;;;;;;24.83;55.80;100850.67;5235790;56;1141054;-78
2022/07/03 19:24:19;;;;;;;17.87;6.33;;;;;;;24.64;56.96;100860.06;5150629;56;1141533;-79
2022/07/03 19:29:25;;;;;;;10.57;3.43;;;;;;;24.44;57.74;100860.80;5145879;57;1141044;-79
2022/07/03 19:34:31;;;;;;;4.67;1.95;;;;;;;24.29;58.61;100854.70;5068869;57;1141227;-78
2022/07/03 19:39:37;;;;;;;11.57;3.55;;;;;;;24.14;59.75;100858.02;5223462;56;1138980;-80
2022/07/03 19:44:43;;;;;;;4.87;2.40;;;;;;;23.91;60.68;100847.50;5241262;56;1141067;-81
2022/07/03 19:49:49;;;;;;;4.83;2.25;;;;;;;23.75;62.19;100851.85;5241450;56;1139030;-78
2022/07/03 19:54:55;;;;;;;6.65;2.65;;;;;;;23.59;63.49;100848.09;5168673;56;1139496;-80
2022/07/03 20:00:02;;;;;;;6.05;2.00;;;;;;;23.43;64.08;100847.83;5139007;57;1138994;-77
2022/07/03 20:05:09;;;;;;;3.33;2.35;;;;;;;23.32;64.49;100845.15;5066801;58;1139307;-79
2022/07/03 20:10:15;;;;;;;6.45;2.33;;;;;;;23.17;65.32;100837.64;5078474;57;1139269;-78
2022/07/03 20:15:21;;;;;;;6.47;2.37;;;;;;;23.07;65.51;100840.64;5150112;57;1138985;-78
2022/07/03 20:20:27;;;;;;;3.02;2.40;;;;;;;23.04;65.78;100845.09;5001774;58;1139034;-80
2022/07/03 20:25:36;;;;;;;4.47;3.08;;;;;;;23.05;66.27;100844.58;5010251;58;1139349;-80
2022/07/03 20:30:40;;;;;;;5.22;2.52;;;;;;;23.07;66.46;100847.37;5175447;56;1138967;-80
2022/07/03 20:35:46;;;;;;;7.30;3.22;;;;;;;23.01;66.47;100844.64;5204422;56;1139238;-80
2022/07/03 20:40:52;;;;;;;3.98;2.72;;;;;;;22.86;66.59;100842.50;5227150;56;1139446;-80
2022/07/03 20:45:58;;;;;;;9.93;2.70;;;;;;;22.72;66.89;100840.14;5227024;56;1138957;-80
2022/07/03 20:51:03;;;;;;;16.85;3.55;;;;;;;22.58;67.45;100839.16;5170963;56;1138987;-80
2022/07/03 20:56:09;;;;;;;12.90;4.33;;;;;;;22.49;67.93;100838.09;5146892;57;1141144;-79
2022/07/03 21:01:14;;;;;;;8.20;4.45;;;;;;;22.45;68.34;100845.23;5141197;57;1141374;-81
2022/07/03 21:06:21;;;;;;;6.87;3.72;;;;;;;22.43;68.52;100832.45;5141047;57;1139297;-70
2022/07/03 21:11:34;;;;;;;7.33;4.15;;;;;;;22.45;68.26;100834.45;5131730;56;1138974;-85
2022/07/03 21:16:44;;;;;;;;;;;;;;;22.44;68.12;100840.02;5130789;57;1138992;-81
2022/07/03 21:21:52;;;;;;;3.27;2.55;;;;;;;22.40;67.61;100832.82;4996973;58;976662;-84
2022/07/03 21:26:57;;;;;;;3.25;2.35;;;;;;;22.28;67.24;100826.24;5119742;56;1136361;-88
2022/07/03 21:32:04;;;;;;;9.30;2.55;;;;;;;22.30;67.51;100823.36;5133484;56;1139034;-86
2022/07/03 21:37:10;;;;;;;3.87;2.17;;;;;;;22.31;67.46;100822.31;5154193;57;1139430;-84
2022/07/03 21:42:16;;;;;;;13.98;3.42;;;;;;;22.29;67.25;100812.26;5161322;57;1138942;-82
2022/07/03 21:47:21;;;;;;;4.75;2.75;;;;;;;22.24;66.60;100813.32;5141672;57;1140621;-84
2022/07/03 21:52:27;;;;;;;9.05;3.02;;;;;;;22.12;66.55;100807.58;5163559;57;1139219;-83
2022/07/03 21:57:33;;;;;;;3.92;2.00;;;;;;;22.08;66.65;100803.07;5161366;57;1138845;-80
2022/07/03 22:02:39;;;;;;;5.85;2.55;;;;;;;22.04;66.34;100800.93;5161020;57;1139056;-83
2022/07/03 22:07:44;;;;;;;3.22;1.72;;;;;;;21.95;66.44;100800.17;5161439;57;1138927;-84
2022/07/03 22:12:50;;;;;;;7.05;2.58;;;;;;;21.89;66.59;100798.72;5106407;57;1139273;-83
2022/07/03 22:17:56;;;;;;;5.15;1.67;;;;;;;21.84;66.67;100796.60;5073619;58;1138957;-83
2022/07/03 22:23:02;;;;;;;3.05;1.90;;;;;;;21.79;66.83;100787.39;5133239;57;1138956;-85
2022/07/03 22:28:08;;;;;;;7.70;1.80;;;;;;;21.72;67.00;100784.59;5095008;57;1137273;-83
2022/07/03 22:33:14;;;;;;;4.45;2.15;;;;;;;21.68;67.29;100787.36;5126499;57;1137056;-83
2022/07/03 22:38:20;;;;;;;7.22;1.98;;;;;;;21.61;67.41;100781.86;5153120;57;1136942;-83
2022/07/03 22:43:25;;;;;;;3.15;2.22;;;;;;;21.58;67.45;100778.69;5153124;56;1136916;-83
2022/07/03 22:48:31;;;;;;;4.53;2.20;;;;;;;21.52;67.57;100778.09;5153103;57;1137115;-84
2022/07/03 22:53:38;;;;;;;3.45;2.10;;;;;;;21.45;67.58;100771.77;5150310;57;1136953;-79
2022/07/03 22:58:43;;;;;;;3.83;2.30;;;;;;;21.34;67.77;100768.52;5066057;58;1136915;-81
2022/07/03 23:03:49;;;;;;;3.75;2.35;;;;;;;21.27;68.04;100764.03;5066171;58;1136892;-81
2022/07/03 23:08:55;;;;;;;2.27;2.08;;;;;;;21.21;68.18;100763.43;5066716;58;1137346;-80
2022/07/03 23:14:02;;;;;;;2.40;1.90;;;;;;;21.12;68.16;100755.89;5211953;56;1136892;-80
2022/07/03 23:19:08;;;;;;;7.28;2.25;;;;;;;21.04;68.28;100760.02;5163734;56;1137112;-84
2022/07/03 23:24:13;;;;;;;6.33;2.15;;;;;;;20.97;68.57;100755.02;5152031;57;1137036;-81
2022/07/03 23:29:19;;;;;;;2.85;2.00;;;;;;;20.91;68.73;100751.72;5142569;57;1137026;-86
2022/07/03 23:34:25;;;;;;;4.78;2.20;;;;;;;20.82;68.90;100739.34;5141152;57;1137024;-78
2022/07/03 23:39:31;;;;;;;6.60;2.75;;;;;;;20.74;69.13;100747.48;5155084;57;1137001;-82
2022/07/03 23:44:36;;;;;;;5.05;2.25;;;;;;;20.69;69.58;100738.60;5160166;57;1136985;-83
2022/07/03 23:55:06;;;;;;;9.00;2.27;;;;;;;20.59;69.74;100733.47;5230758;56;1139027;-85
